Time;durP1;ratioP1;P1;durP2;ratioP2;P2;SDS_P1;SDS_P2;PMS_P1;PMS_P2;Temp;Humidity;BMP_temperature;BMP_pressure;BME280_temperature;BME280_humidity;BME280_pressure;Samples;Min_cycle;Max_cycle;Signal;HPM_P1;HPM_P2
2022/10/06 00:00:50;;;;;;;16.17;9.95;;;;;;;8.52;100.00;98724.33;1779613;80;21011;-84
2022/10/06 00:03:22;;;;;;;17.77;9.28;;;;;;;8.37;100.00;98716.82;1779280;79;21058;-84
2022/10/06 00:05:48;;;;;;;13.78;8.05;;;;;;;8.38;100.00;98733.88;1779129;78;21504;-84
2022/10/06 00:08:14;;;;;;;16.67;9.90;;;;;;;8.35;100.00;98734.34;1779258;80;21230;-85
2022/10/06 00:10:40;;;;;;;20.70;8.50;;;;;;;8.28;100.00;98741.77;1779302;80;21715;-84
2022/10/06 00:13:06;;;;;;;14.95;8.73;;;;;;;8.17;100.00;98736.22;1779328;80;20928;-84
2022/10/06 00:15:32;;;;;;;17.82;8.40;;;;;;;8.13;100.00;98745.89;1779202;80;20960;-85
2022/10/06 00:17:58;;;;;;;15.08;8.25;;;;;;;8.12;100.00;98746.95;1779448;80;20984;-84
2022/10/06 00:20:24;;;;;;;11.63;7.97;;;;;;;8.04;100.00;98746.55;1743473;80;21029;-84
2022/10/06 00:22:50;;;;;;;14.87;7.87;;;;;;;8.02;100.00;98743.25;1741302;81;21719;-84
2022/10/06 00:25:20;;;;;;;14.65;7.67;;;;;;;7.99;100.00;98743.22;1741222;81;20868;-83
2022/10/06 00:27:48;;;;;;;22.05;9.80;;;;;;;7.93;100.00;98745.01;1741411;81;21466;-84
2022/10/06 00:30:18;;;;;;;20.15;11.05;;;;;;;7.93;100.00;98741.49;1741368;82;21478;-84
2022/10/06 00:32:59;;;;;;;14.47;8.83;;;;;;;7.92;100.00;98752.82;1740907;80;21007;-84
2022/10/06 00:35:30;;;;;;;17.27;8.25;;;;;;;7.89;100.00;98750.63;1720288;82;21469;-85
2022/10/06 00:37:56;;;;;;;13.83;6.80;;;;;;;7.86;100.00;98757.02;1740872;82;21007;-85
2022/10/06 00:40:22;;;;;;;13.48;7.15;;;;;;;7.78;100.00;98754.75;1741147;82;20843;-84
2022/10/06 00:43:03;;;;;;;13.28;7.78;;;;;;;7.72;100.00;98749.79;1741477;82;21557;-84
2022/10/06 00:45:41;;;;;;;15.63;8.08;;;;;;;7.67;100.00;98759.13;1741239;82;21033;-83
2022/10/06 00:48:15;;;;;;;12.80;8.20;;;;;;;7.62;100.00;98754.48;1741650;82;21854;-85
2022/10/06 00:50:41;;;;;;;13.13;7.83;;;;;;;7.55;100.00;98745.71;1741207;82;20994;-84
2022/10/06 00:53:07;;;;;;;13.75;7.30;;;;;;;7.48;100.00;98745.57;1741334;82;21533;-84
2022/10/06 00:55:33;;;;;;;15.08;8.20;;;;;;;7.43;100.00;98753.02;1734750;81;20872;-84
2022/10/06 00:57:58;;;;;;;18.10;8.55;;;;;;;7.39;100.00;98753.77;1742270;82;21308;-84
2022/10/06 01:00:24;;;;;;;12.80;7.97;;;;;;;7.37;100.00;98749.15;1731916;82;21984;-84
2022/10/06 01:02:57;;;;;;;16.57;7.28;;;;;;;7.34;100.00;98754.47;1741975;82;21570;-84
2022/10/06 01:05:27;;;;;;;14.65;7.15;;;;;;;7.30;100.00;98758.72;1774992;80;21484;-84
2022/10/06 01:07:53;;;;;;;11.57;6.97;;;;;;;7.28;100.00;98758.15;1779437;80;20984;-84
2022/10/06 01:10:19;;;;;;;21.15;7.85;;;;;;;7.27;100.00;98753.82;1774240;80;20947;-84
2022/10/06 01:12:45;;;;;;;10.95;6.60;;;;;;;7.29;100.00;98766.52;1759892;80;21009;-84
2022/10/06 01:15:11;;;;;;;11.65;6.67;;;;;;;7.32;100.00;98766.03;1741221;81;20880;-85
2022/10/06 01:17:42;;;;;;;17.20;8.33;;;;;;;7.30;100.00;98766.81;1741538;82;21001;-84
2022/10/06 01:20:11;;;;;;;15.70;8.68;;;;;;;7.34;100.00;98767.42;1744975;82;22138;-84
2022/10/06 01:22:47;;;;;;;15.93;7.37;;;;;;;7.35;100.00;98765.57;1741422;82;20987;-84
2022/10/06 01:25:14;;;;;;;18.07;9.53;;;;;;;7.33;100.00;98779.80;1740269;80;21172;-85
2022/10/06 01:27:43;;;;;;;14.53;7.80;;;;;;;7.32;100.00;98776.81;1741257;82;21073;-84
2022/10/06 01:30:12;;;;;;;22.37;12.63;;;;;;;7.28;100.00;98781.88;1741342;81;21037;-85
2022/10/06 01:32:38;;;;;;;;;;;;;;;7.21;100.00;98783.89;1744170;82;21073;-84
2022/10/06 01:35:05;;;;;;;18.80;10.50;;;;;;;7.16;100.00;98784.31;1711643;82;20252;-84
2022/10/06 01:37:31;;;;;;;18.10;8.30;;;;;;;7.09;100.00;98795.22;1741378;81;21076;-84
2022/10/06 01:39:57;;;;;;;19.73;8.45;;;;;;;7.01;100.00;98797.78;1741248;82;20934;-84
2022/10/06 01:42:23;;;;;;;16.60;7.92;;;;;;;6.99;100.00;98795.83;1741419;82;21585;-84
2022/10/06 01:44:49;;;;;;;18.17;8.35;;;;;;;6.92;100.00;98794.31;1741338;82;20867;-85
2022/10/06 01:47:15;;;;;;;13.35;8.55;;;;;;;6.86;100.00;98791.25;1741436;82;20832;-84
2022/10/06 01:49:41;;;;;;;12.65;7.37;;;;;;;6.84;100.00;98800.92;1741431;82;22007;-84
2022/10/06 01:52:07;;;;;;;20.48;9.78;;;;;;;6.84;100.00;98801.45;1741242;82;21043;-84
2022/10/06 01:54:33;;;;;;;16.30;6.83;;;;;;;6.83;100.00;98799.78;1717767;82;21657;-84
2022/10/06 01:56:59;;;;;;;11.15;7.40;;;;;;;6.77;100.00;98810.47;1711620;82;21088;-84
2022/10/06 01:59:25;;;;;;;12.00;7.22;;;;;;;6.68;100.00;98807.84;1731780;82;21610;-84
2022/10/06 02:01:50;;;;;;;12.33;6.90;;;;;;;6.67;100.00;98818.32;1732044;82;21304;-84
2022/10/06 02:04:16;;;;;;;10.15;6.35;;;;;;;6.60;100.00;98811.41;1741981;82;21061;-85
2022/10/06 02:06:42;;;;;;;11.53;7.10;;;;;;;6.55;100.00;98817.48;1779548;79;20956;-85
2022/10/06 02:09:08;;;;;;;11.30;6.37;;;;;;;6.50;100.00;98820.90;1779472;80;21044;-83
2022/10/06 02:11:35;;;;;;;16.60;7.15;;;;;;;6.45;100.00;98824.80;1779687;80;20936;-84
2022/10/06 02:14:01;;;;;;;11.28;6.50;;;;;;;6.41;100.00;98824.14;1779291;80;21032;-84
2022/10/06 02:16:28;;;;;;;10.40;5.78;;;;;;;6.34;100.00;98828.31;1779501;80;21484;-84
2022/10/06 02:18:54;;;;;;;12.03;6.55;;;;;;;6.27;100.00;98830.29;1779180;80;20984;-84
2022/10/06 02:21:21;;;;;;;13.48;7.33;;;;;;;6.25;100.00;98830.23;1779208;80;20909;-84
2022/10/06 02:23:47;;;;;;;11.75;6.85;;;;;;;6.16;100.00;98827.88;1767578;80;21064;-84
2022/10/06 02:26:19;;;;;;;13.08;7.15;;;;;;;6.06;100.00;98831.64;1753453;80;21874;-85
2022/10/06 02:28:43;;;;;;;10.65;7.45;;;;;;;6.02;100.00;98833.70;1751733;80;21001;-85
2022/10/06 02:31:09;;;;;;;15.30;6.15;;;;;;;5.98;100.00;98836.53;1742819;81;21052;-84
2022/10/06 02:33:36;;;;;;;8.85;6.17;;;;;;;5.93;100.00;98838.58;1753665;80;21495;-84
2022/10/06 02:36:03;;;;;;;11.65;6.50;;;;;;;5.89;100.00;98836.01;1753370;80;21052;-85
2022/10/06 02:38:28;;;;;;;12.05;6.05;;;;;;;5.84;100.00;98830.52;1753623;81;22068;-84
2022/10/06 02:40:55;;;;;;;9.60;5.80;;;;;;;5.79;100.00;98840.60;1753529;80;20945;-84
2022/10/06 02:43:21;;;;;;;11.15;7.08;;;;;;;5.81;100.00;98825.08;1753500;80;21510;-84
2022/10/06 02:45:59;;;;;;;10.10;6.47;;;;;;;5.84;100.00;98823.80;1753666;81;20842;-84
2022/10/06 02:48:25;;;;;;;16.90;7.05;;;;;;;5.82;100.00;98825.90;1753671;80;21028;-84
2022/10/06 02:50:57;;;;;;;15.85;7.42;;;;;;;5.82;100.00;98820.52;1753717;80;21248;-84
2022/10/06 02:53:26;;;;;;;12.03;7.17;;;;;;;5.79;100.00;98824.46;1753695;80;21026;-84
2022/10/06 02:56:05;;;;;;;16.17;7.25;;;;;;;5.81;100.00;98837.18;1743811;80;26530;-84
2022/10/06 02:58:31;;;;;;;;;;;;;;;5.84;100.00;98831.86;1743799;81;21415;-84
2022/10/06 03:01:12;;;;;;;13.95;8.15;;;;;;;5.86;100.00;98826.54;1741478;82;20202;-84
2022/10/06 03:03:39;;;;;;;14.55;7.53;;;;;;;5.89;100.00;98831.97;1748570;80;21503;-84
2022/10/06 03:06:22;;;;;;;15.35;7.80;;;;;;;5.96;100.00;98842.67;1779403;80;21067;-84
2022/10/06 03:09:04;;;;;;;16.10;9.70;;;;;;;6.01;100.00;98836.91;1778240;80;20989;-85
2022/10/06 03:11:35;;;;;;;12.95;8.50;;;;;;;6.08;100.00;98840.33;1779468;80;20984;-84
2022/10/06 03:14:01;;;;;;;17.52;10.28;;;;;;;6.21;100.00;98829.34;1779437;80;21071;-84
2022/10/06 03:16:30;;;;;;;15.05;8.63;;;;;;;6.35;100.00;98838.55;1779136;79;21319;-84
2022/10/06 03:18:56;;;;;;;13.10;9.18;;;;;;;6.44;100.00;98834.47;1779482;80;20988;-83
2022/10/06 03:21:28;;;;;;;15.23;8.20;;;;;;;6.54;100.00;98836.58;1779502;80;20841;-84
2022/10/06 03:23:55;;;;;;;13.32;7.60;;;;;;;6.68;100.00;98829.38;1779412;80;21058;-84
2022/10/06 03:26:23;;;;;;;13.85;8.38;;;;;;;6.90;100.00;98832.81;1779425;80;21000;-84
2022/10/06 03:28:49;;;;;;;12.80;7.28;;;;;;;7.03;100.00;98828.53;1779458;80;21273;-84
2022/10/06 03:31:16;;;;;;;19.55;7.30;;;;;;;7.22;100.00;98831.88;1779264;80;20857;-84
2022/10/06 03:33:42;;;;;;;8.58;5.22;;;;;;;7.41;100.00;98827.14;1779514;80;21075;-84
2022/10/06 03:36:14;;;;;;;17.02;7.72;;;;;;;7.56;100.00;98835.53;1779272;80;20857;-84
2022/10/06 03:38:40;;;;;;;8.45;5.28;;;;;;;7.71;100.00;98833.66;1779292;80;21464;-84
2022/10/06 03:41:13;;;;;;;9.40;5.67;;;;;;;7.84;100.00;98838.22;1779456;80;21075;-84
2022/10/06 03:43:41;;;;;;;13.20;6.00;;;;;;;7.96;100.00;98827.92;1779383;80;21055;-84
2022/10/06 03:46:08;;;;;;;13.38;7.53;;;;;;;8.02;100.00;98838.53;1779366;80;21551;-84
2022/10/06 03:48:34;;;;;;;24.47;11.10;;;;;;;8.09;100.00;98836.51;1779220;80;22181;-84
2022/10/06 03:51:03;;;;;;;27.15;11.33;;;;;;;8.16;100.00;98835.01;1779480;80;20972;-85
2022/10/06 03:53:29;;;;;;;26.62;7.62;;;;;;;8.19;100.00;98840.73;1779414;80;21149;-84
2022/10/06 03:56:14;;;;;;;10.35;5.33;;;;;;;8.32;100.00;98842.30;1724592;81;20847;-84
2022/10/06 03:58:42;;;;;;;15.03;7.55;;;;;;;8.45;100.00;98838.48;1741312;82;20987;-84
2022/10/06 04:01:12;;;;;;;54.77;21.35;;;;;;;8.56;100.00;98843.00;1741628;82;21002;-84
2022/10/06 04:03:39;;;;;;;43.63;15.85;;;;;;;8.59;100.00;98850.59;1748354;80;21000;-84
2022/10/06 04:06:06;;;;;;;36.65;13.45;;;;;;;8.55;100.00;98845.41;1779539;79;21266;-84
2022/10/06 04:08:33;;;;;;;38.48;15.50;;;;;;;8.48;100.00;98852.86;1778761;80;20972;-84
2022/10/06 04:11:08;;;;;;;39.95;15.35;;;;;;;8.47;100.00;98849.87;1779261;79;21008;-84
2022/10/06 04:13:34;;;;;;;47.78;18.35;;;;;;;8.51;100.00;98852.89;1779436;79;20957;-84
2022/10/06 04:16:23;;;;;;;47.98;15.90;;;;;;;8.53;100.00;98855.63;1779682;79;21028;-84
2022/10/06 04:18:53;;;;;;;25.70;11.53;;;;;;;8.36;100.00;98853.45;1778828;80;21055;-84
2022/10/06 04:21:19;;;;;;;18.62;9.28;;;;;;;8.36;100.00;98853.45;1779178;80;21294;-84
2022/10/06 04:23:44;;;;;;;34.27;14.80;;;;;;;8.27;100.00;98853.55;1779390;80;20924;-84
2022/10/06 04:26:16;;;;;;;20.85;10.53;;;;;;;8.22;100.00;98857.52;1779418;79;20892;-84
2022/10/06 04:28:43;;;;;;;16.23;7.08;;;;;;;8.10;100.00;98854.34;1779294;80;20991;-84
2022/10/06 04:31:21;;;;;;;9.10;4.90;;;;;;;8.06;100.00;98856.44;1779358;80;21057;-84
2022/10/06 04:33:50;;;;;;;15.00;6.70;;;;;;;8.03;100.00;98851.50;1779413;80;21063;-84
2022/10/06 04:36:21;;;;;;;16.85;7.20;;;;;;;8.04;100.00;98859.38;1749501;80;21029;-84
2022/10/06 04:38:46;;;;;;;17.70;8.65;;;;;;;8.05;100.00;98862.36;1778925;79;21487;-84
2022/10/06 04:41:14;;;;;;;23.45;11.65;;;;;;;8.07;100.00;98864.28;1779200;80;20853;-84
2022/10/06 04:43:40;;;;;;;20.77;11.60;;;;;;;8.12;100.00;98868.97;1774487;79;21164;-84
2022/10/06 04:46:06;;;;;;;26.40;12.80;;;;;;;8.14;100.00;98868.19;1779522;79;21420;-84
2022/10/06 04:48:32;;;;;;;23.55;8.48;;;;;;;8.21;100.00;98870.20;1775492;80;20948;-85
2022/10/06 04:51:02;;;;;;;15.72;8.38;;;;;;;8.33;100.00;98876.34;1741239;81;20866;-84
2022/10/06 04:53:28;;;;;;;11.63;6.90;;;;;;;8.40;100.00;98877.05;1746637;80;21061;-84
2022/10/06 04:56:04;;;;;;;22.75;7.53;;;;;;;8.44;100.00;98873.30;1743285;80;21132;-84
2022/10/06 04:58:35;;;;;;;12.93;6.05;;;;;;;8.42;100.00;98882.19;1739773;80;20978;-84
2022/10/06 05:01:01;;;;;;;18.90;9.75;;;;;;;8.43;100.00;98879.77;1721151;82;21086;-85
2022/10/06 05:03:27;;;;;;;18.10;9.68;;;;;;;8.44;100.00;98882.23;1748929;80;20880;-85
2022/10/06 05:06:09;;;;;;;18.87;10.05;;;;;;;8.47;100.00;98883.64;1778088;80;21070;-84
2022/10/06 05:08:36;;;;;;;15.20;7.10;;;;;;;8.53;100.00;98877.23;1736972;79;21263;-84
2022/10/06 05:11:05;;;;;;;16.30;9.30;;;;;;;8.61;100.00;98880.87;1736553;82;21223;-84
2022/10/06 05:13:31;;;;;;;8.75;4.92;;;;;;;8.66;100.00;98878.80;1736678;82;21040;-84
2022/10/06 05:15:58;;;;;;;16.25;6.30;;;;;;;8.69;100.00;98881.00;1744703;81;20908;-85
2022/10/06 05:18:24;;;;;;;13.00;6.72;;;;;;;8.74;100.00;98883.27;1738521;81;21022;-84
2022/10/06 05:20:59;;;;;;;10.32;5.92;;;;;;;8.75;100.00;98887.59;1754962;81;21241;-84
2022/10/06 05:23:27;;;;;;;10.68;5.58;;;;;;;8.75;100.00;98887.59;1754868;80;21444;-84
2022/10/06 05:25:55;;;;;;;24.92;8.00;;;;;;;8.73;100.00;98890.27;1771646;81;21078;-85
2022/10/06 05:28:22;;;;;;;9.53;5.47;;;;;;;8.72;100.00;98889.98;1742941;81;21080;-84
2022/10/06 05:31:15;;;;;;;10.05;6.42;;;;;;;8.69;100.00;98890.45;1745746;80;21080;-84
2022/10/06 05:33:41;;;;;;;10.53;5.62;;;;;;;8.66;100.00;98898.53;1713115;83;21128;-84
2022/10/06 05:36:13;;;;;;;12.05;6.60;;;;;;;8.68;100.00;98901.80;1713391;83;21708;-84
2022/10/06 05:38:39;;;;;;;13.90;5.28;;;;;;;8.57;100.00;98899.19;1716160;82;21512;-84
2022/10/06 05:41:09;;;;;;;10.25;5.15;;;;;;;8.57;100.00;98899.19;1747455;80;20911;-84
2022/10/06 05:43:35;;;;;;;9.78;5.78;;;;;;;8.58;100.00;98907.58;1749899;80;21014;-85
2022/10/06 05:46:04;;;;;;;10.82;4.75;;;;;;;8.66;100.00;98915.28;1753386;80;21214;-85
2022/10/06 05:48:30;;;;;;;11.00;5.15;;;;;;;8.66;100.00;98915.28;1738606;80;21056;-85
2022/10/06 05:51:00;;;;;;;18.12;10.60;;;;;;;8.78;100.00;98906.55;1754153;80;21062;-85
2022/10/06 05:53:28;;;;;;;17.48;6.95;;;;;;;8.83;100.00;98916.09;1732520;81;21042;-85
2022/10/06 05:56:15;;;;;;;13.75;5.55;;;;;;;8.83;100.00;98916.09;1726281;82;21020;-85
2022/10/06 05:58:44;;;;;;;17.73;6.72;;;;;;;8.92;100.00;98920.55;1696572;84;21658;-85
2022/10/06 06:01:21;;;;;;;11.20;6.65;;;;;;;9.04;100.00;98915.86;1712968;81;21091;-84
2022/10/06 06:04:01;;;;;;;10.60;4.97;;;;;;;9.07;100.00;98915.39;1710506;81;21889;-84
2022/10/06 06:06:37;;;;;;;17.52;7.10;;;;;;;9.12;100.00;98922.73;1706116;82;21191;-85
2022/10/06 06:09:13;;;;;;;11.65;7.40;;;;;;;9.17;100.00;98929.58;1693651;82;21063;-85
2022/10/06 06:11:41;;;;;;;8.23;5.20;;;;;;;9.29;100.00;98930.28;1690172;82;21152;-85
2022/10/06 06:14:09;;;;;;;13.48;5.58;;;;;;;9.50;100.00;98936.27;1692213;83;21535;-85
2022/10/06 06:16:37;;;;;;;8.87;5.30;;;;;;;9.68;100.00;98933.80;1689002;82;21002;-85
2022/10/06 06:19:04;;;;;;;12.43;5.57;;;;;;;9.82;100.00;98930.97;1687338;82;20995;-84
2022/10/06 06:21:30;;;;;;;16.52;6.40;;;;;;;9.95;100.00;98940.62;1694211;82;21607;-85
2022/10/06 06:23:56;;;;;;;10.35;6.22;;;;;;;10.03;100.00;98940.17;1692765;81;21823;-85
2022/10/06 06:26:30;;;;;;;15.00;7.30;;;;;;;10.20;100.00;98946.04;1690819;82;21064;-84
2022/10/06 06:29:02;;;;;;;10.00;6.45;;;;;;;10.36;100.00;98945.97;1686064;82;21078;-84
2022/10/06 06:31:26;;;;;;;11.33;7.67;;;;;;;10.55;100.00;98951.84;1696571;81;21074;-84
2022/10/06 06:33:55;;;;;;;31.45;20.62;;;;;;;10.68;100.00;98950.08;1697190;82;21027;-84
2022/10/06 06:36:28;;;;;;;50.03;34.23;;;;;;;10.81;100.00;98958.30;1686922;82;22319;-84
2022/10/06 06:38:56;;;;;;;20.62;12.50;;;;;;;10.90;100.00;98964.07;1688133;82;21084;-84
2022/10/06 06:41:28;;;;;;;10.28;7.35;;;;;;;11.03;100.00;98961.48;1686775;82;21069;-86
2022/10/06 06:43:54;;;;;;;11.73;5.75;;;;;;;11.11;100.00;98967.23;1685151;83;21130;-85
2022/10/06 06:46:25;;;;;;;17.32;7.08;;;;;;;11.12;100.00;98963.44;1700021;82;20932;-85
2022/10/06 06:48:52;;;;;;;8.28;6.00;;;;;;;11.17;100.00;98972.14;1709234;81;21118;-86
2022/10/06 06:51:21;;;;;;;13.10;7.35;;;;;;;11.33;100.00;98967.10;1709764;81;22169;-85
2022/10/06 06:53:46;;;;;;;11.97;6.50;;;;;;;11.53;100.00;98970.47;1701950;82;21435;-84
2022/10/06 06:56:12;;;;;;;11.93;7.75;;;;;;;11.71;100.00;98977.38;1702608;82;20964;-85
2022/10/06 06:58:40;;;;;;;11.68;7.22;;;;;;;11.86;100.00;98980.18;1698411;82;21454;-85
2022/10/06 07:01:10;;;;;;;11.68;5.70;;;;;;;12.06;100.00;98980.28;1687473;82;21558;-85
2022/10/06 07:03:38;;;;;;;15.30;7.80;;;;;;;12.51;100.00;98982.86;1750509;80;21095;-85
2022/10/06 07:06:09;;;;;;;12.18;6.15;;;;;;;12.88;100.00;98994.05;1739133;80;21023;-85
2022/10/06 07:08:37;;;;;;;18.67;7.28;;;;;;;13.24;100.00;98988.94;1704026;81;21014;-85
2022/10/06 07:11:17;;;;;;;11.53;6.95;;;;;;;13.42;100.00;99001.71;1697066;82;21483;-85
2022/10/06 07:13:43;;;;;;;13.90;6.45;;;;;;;13.61;100.00;99000.03;1705085;82;21109;-85
2022/10/06 07:27:09;;;;;;;13.10;6.72;;;;;;;13.68;99.43;99004.66;1738051;80;21011;-85
2022/10/06 07:29:35;;;;;;;15.08;6.95;;;;;;;13.61;98.47;99010.92;1731507;80;20937;-85
2022/10/06 07:32:00;;;;;;;12.33;7.15;;;;;;;14.76;98.01;99011.83;1737100;80;20884;-86
2022/10/06 07:34:29;;;;;;;16.12;6.50;;;;;;;16.16;96.26;99009.20;1726135;81;20878;-86
2022/10/06 07:36:56;;;;;;;15.27;6.30;;;;;;;17.29;93.97;99007.31;1735288;80;21008;-86
2022/10/06 07:39:22;;;;;;;12.23;7.30;;;;;;;18.30;90.79;99005.17;1728012;81;21159;-86
2022/10/06 07:41:48;;;;;;;18.50;11.12;;;;;;;19.38;87.60;99002.95;1734056;79;20968;-86
2022/10/06 07:44:14;;;;;;;9.25;4.75;;;;;;;20.14;82.62;98998.18;1748222;79;20884;-86
2022/10/06 07:46:41;;;;;;;5.28;3.67;;;;;;;20.77;83.57;99005.72;1742838;80;21084;-86
2022/10/06 07:49:07;;;;;;;8.13;4.20;;;;;;;21.73;80.49;98998.98;1734085;81;21069;-87
2022/10/06 07:51:33;;;;;;;5.85;3.80;;;;;;;22.26;79.65;98995.45;1739454;80;21219;-86
2022/10/06 07:54:00;;;;;;;10.60;4.55;;;;;;;22.70;67.12;99000.94;1765250;80;20928;-87
2022/10/06 07:56:26;;;;;;;9.23;3.80;;;;;;;23.42;69.40;99000.28;1706264;80;21657;-87
2022/10/06 07:58:52;;;;;;;12.35;5.67;;;;;;;24.38;70.06;99006.34;1708158;82;21091;-86
2022/10/06 08:01:19;;;;;;;14.30;9.75;;;;;;;25.56;64.39;99007.28;1740686;80;20909;-87
2022/10/06 08:03:47;;;;;;;12.20;7.80;;;;;;;25.74;62.37;98995.88;1750864;80;21234;-87
2022/10/06 08:06:15;;;;;;;;;;;;;;;25.91;63.29;99006.64;1752391;79;21119;-87
2022/10/06 08:08:43;;;;;;;;;;;;;;;26.37;55.99;98992.48;1738196;81;20194;-87
2022/10/06 08:11:09;;;;;;;9.10;6.22;;;;;;;26.46;58.99;99001.25;1764546;79;20225;-87
2022/10/06 08:13:37;;;;;;;6.12;3.55;;;;;;;27.27;60.49;99010.61;1743499;80;21116;-87
2022/10/06 08:16:09;;;;;;;;;;;;;;;28.29;57.24;99006.74;1751108;79;21441;-87
2022/10/06 08:18:35;;;;;;;7.42;3.17;;;;;;;28.98;54.67;99010.76;1739939;80;20579;-87
2022/10/06 08:21:13;;;;;;;5.85;3.58;;;;;;;29.13;50.05;99013.92;1740914;81;21080;-87
2022/10/06 08:23:41;;;;;;;10.55;5.22;;;;;;;29.45;47.64;99014.91;1735176;80;21152;-87
2022/10/06 08:26:11;;;;;;;6.08;4.15;;;;;;;29.67;44.31;99020.97;1732475;80;21102;-87
2022/10/06 08:28:37;;;;;;;10.13;4.60;;;;;;;29.36;40.07;99015.80;1749126;80;21043;-87
2022/10/06 08:31:07;;;;;;;9.68;4.05;;;;;;;29.26;42.46;99022.06;1724629;81;21021;-87
2022/10/06 08:33:37;;;;;;;6.50;3.37;;;;;;;29.74;41.76;99026.63;1746796;80;21596;-87
2022/10/06 08:36:08;;;;;;;9.83;2.77;;;;;;;30.38;39.25;99032.02;1742577;80;21536;-87
2022/10/06 08:38:36;;;;;;;4.00;2.10;;;;;;;30.61;38.20;99028.99;1734821;80;22164;-88
2022/10/06 08:41:32;;;;;;;7.15;2.90;;;;;;;30.69;36.00;99031.27;1747057;80;21138;-87
2022/10/06 08:44:09;;;;;;;5.53;2.25;;;;;;;29.96;36.55;99033.22;1742618;80;21149;-87
2022/10/06 08:46:41;;;;;;;11.08;3.05;;;;;;;27.38;41.12;99037.25;1737199;79;20993;-87
2022/10/06 08:49:13;;;;;;;3.98;1.98;;;;;;;25.99;42.27;99037.59;1737460;80;21129;-87
2022/10/06 08:52:25;;;;;;;4.47;2.70;;;;;;;24.87;44.40;99043.11;1734331;80;20977;-87
2022/10/06 08:55:03;;;;;;;4.47;2.87;;;;;;;23.99;45.58;99029.93;1745522;80;21819;-86
2022/10/06 08:57:47;;;;;;;7.40;2.92;;;;;;;23.11;46.66;99054.05;1724801;80;21018;-86
2022/10/06 09:00:14;;;;;;;4.50;2.15;;;;;;;22.21;49.90;99044.73;1739083;80;21053;-86
2022/10/06 09:02:45;;;;;;;8.18;2.67;;;;;;;21.86;50.76;99046.80;1689065;82;21040;-86
2022/10/06 09:05:18;;;;;;;6.33;3.15;;;;;;;21.44;52.56;99054.02;1740786;79;21039;-86
2022/10/06 09:08:19;;;;;;;3.77;2.65;;;;;;;21.36;52.98;99051.51;1748607;79;21031;-86
2022/10/06 09:11:14;;;;;;;6.17;2.75;;;;;;;21.36;53.74;99049.59;1741898;80;21087;-86
2022/10/06 09:13:51;;;;;;;7.62;2.98;;;;;;;21.19;54.63;99055.05;1726036;80;21511;-86
2022/10/06 09:16:17;;;;;;;5.45;3.05;;;;;;;21.04;54.96;99061.07;1751210;80;21027;-86
2022/10/06 09:18:54;;;;;;;4.28;2.90;;;;;;;21.16;55.14;99057.09;1735527;82;21055;-86
2022/10/06 09:21:29;;;;;;;6.25;3.47;;;;;;;21.24;55.46;99060.41;1740270;80;21098;-86
2022/10/06 09:24:02;;;;;;;5.97;2.85;;;;;;;21.22;55.50;99055.80;1740740;80;21464;-86
2022/10/06 09:26:30;;;;;;;6.62;3.90;;;;;;;21.02;56.64;99061.40;1708451;82;21083;-86
2022/10/06 09:28:56;;;;;;;;;;;;;;;20.83;57.59;99072.70;1756410;80;21094;-86
2022/10/06 09:31:28;;;;;;;6.62;3.47;;;;;;;20.58;58.22;99069.89;1744555;80;20213;-86
2022/10/06 09:34:04;;;;;;;8.23;3.20;;;;;;;20.29;59.32;99072.61;1745128;80;21089;-85
2022/10/06 09:36:31;;;;;;;10.60;4.40;;;;;;;20.24;60.03;99068.61;1749572;79;21021;-86
2022/10/06 09:38:58;;;;;;;6.25;4.78;;;;;;;20.28;60.64;99067.67;1748302;80;21050;-86
2022/10/06 09:41:30;;;;;;;9.45;5.60;;;;;;;20.20;60.80;99070.39;1747746;80;21552;-86
2022/10/06 09:44:04;;;;;;;10.10;4.05;;;;;;;20.21;61.32;99076.14;1735264;81;21509;-86
2022/10/06 09:46:40;;;;;;;4.55;2.85;;;;;;;20.18;61.41;99076.78;1716187;81;21120;-86
2022/10/06 09:49:21;;;;;;;9.05;2.75;;;;;;;19.87;61.77;99085.03;1750921;80;22143;-86
2022/10/06 09:52:11;;;;;;;5.58;3.35;;;;;;;19.94;61.06;99091.72;1729768;82;21604;-86
2022/10/06 09:54:40;;;;;;;6.42;2.62;;;;;;;19.93;61.00;99096.97;1748812;79;21523;-86
2022/10/06 09:57:21;;;;;;;5.23;2.87;;;;;;;20.15;60.75;99102.16;1738978;80;22310;-86
2022/10/06 09:59:47;;;;;;;8.15;3.80;;;;;;;20.38;60.84;99102.92;1754203;80;21051;-86
2022/10/06 10:02:39;;;;;;;4.72;3.02;;;;;;;20.62;60.15;99106.12;1736909;80;21539;-86
2022/10/06 10:05:05;;;;;;;8.20;3.08;;;;;;;20.84;60.34;99107.94;1754488;79;21185;-86
2022/10/06 10:07:33;;;;;;;6.92;2.52;;;;;;;20.92;60.22;99107.71;1757401;80;21085;-86
2022/10/06 10:10:20;;;;;;;7.53;2.95;;;;;;;20.95;60.05;99102.95;1747519;80;21530;-86
2022/10/06 10:12:55;;;;;;;3.90;2.25;;;;;;;21.04;60.13;99107.34;1735966;80;21116;-86
2022/10/06 10:15:29;;;;;;;4.42;2.22;;;;;;;20.97;59.49;99118.02;1734415;82;21009;-86
2022/10/06 10:18:01;;;;;;;5.00;2.60;;;;;;;21.02;59.63;99117.87;1743540;80;21025;-86
2022/10/06 10:20:40;;;;;;;7.25;2.30;;;;;;;20.76;59.81;99116.42;1755044;80;21058;-86
2022/10/06 10:23:24;;;;;;;6.85;2.50;;;;;;;20.63;60.16;99120.70;1743462;80;21519;-86
2022/10/06 10:26:16;;;;;;;10.03;2.80;;;;;;;20.37;60.60;99114.50;1741192;80;21136;-86
2022/10/06 10:28:56;;;;;;;8.63;2.65;;;;;;;20.47;61.29;99123.06;1708480;81;21050;-86
2022/10/06 10:31:43;;;;;;;7.80;3.52;;;;;;;20.47;60.70;99119.74;1702404;81;21063;-87
2022/10/06 10:34:34;;;;;;;6.50;2.60;;;;;;;20.72;60.52;99128.41;1737128;80;21364;-86
2022/10/06 10:37:05;;;;;;;5.42;2.27;;;;;;;20.78;60.37;99126.58;1759746;80;21621;-86
2022/10/06 10:39:48;;;;;;;3.92;2.00;;;;;;;20.70;59.72;99135.62;1738824;81;21056;-87
2022/10/06 10:42:33;;;;;;;4.30;2.12;;;;;;;20.81;60.19;99135.56;1733921;80;21044;-87
2022/10/06 10:45:03;;;;;;;4.30;2.00;;;;;;;20.86;60.13;99134.62;1724162;81;21030;-87
2022/10/06 10:47:37;;;;;;;7.92;4.33;;;;;;;20.88;59.75;99133.72;1735254;80;21884;-86
2022/10/06 10:50:36;;;;;;;12.73;4.42;;;;;;;21.01;59.48;99126.44;1745640;80;21577;-86
2022/10/06 10:53:57;;;;;;;4.85;2.98;;;;;;;21.01;59.43;99130.01;1742630;80;21252;-86
2022/10/06 10:56:23;;;;;;;6.45;2.50;;;;;;;20.95;59.85;99125.00;1746411;80;21026;-86
2022/10/06 10:58:56;;;;;;;5.15;2.12;;;;;;;20.90;59.23;99129.27;1719684;81;20962;-86
2022/10/06 11:01:45;;;;;;;8.38;2.60;;;;;;;20.77;59.72;99124.14;1741065;81;20979;-86
2022/10/06 11:04:11;;;;;;;6.62;2.00;;;;;;;20.69;59.98;99122.18;1696093;82;21160;-86
2022/10/06 11:07:13;;;;;;;4.15;2.40;;;;;;;20.47;60.45;99121.12;1718915;82;21320;-86
2022/10/06 11:09:57;;;;;;;7.70;2.75;;;;;;;20.32;60.69;99115.19;1740211;80;21018;-86
2022/10/06 11:12:38;;;;;;;5.72;2.50;;;;;;;20.18;61.04;99119.44;1738677;80;21085;-86
2022/10/06 11:15:24;;;;;;;4.87;2.70;;;;;;;20.02;61.36;99119.02;1730441;80;21445;-86
2022/10/06 11:17:50;;;;;;;5.80;2.75;;;;;;;19.92;61.68;99110.48;1742406;80;21091;-86
2022/10/06 11:20:46;;;;;;;6.37;2.50;;;;;;;19.85;61.98;99116.17;1735788;81;21322;-86
2022/10/06 11:23:59;;;;;;;7.65;2.62;;;;;;;19.70;62.87;99113.23;1753352;80;21063;-87
2022/10/06 11:27:07;;;;;;;3.55;2.33;;;;;;;19.55;62.93;99113.58;1744647;80;21015;-86
2022/10/06 11:29:45;;;;;;;4.97;2.65;;;;;;;19.63;62.51;99113.67;1761416;79;21098;-86
2022/10/06 11:32:50;;;;;;;3.35;2.25;;;;;;;19.76;62.76;99115.31;1748102;80;21412;-86
2022/10/06 11:35:22;;;;;;;3.75;2.12;;;;;;;19.96;62.64;99119.71;1727547;80;21744;-86
2022/10/06 11:37:54;;;;;;;6.50;2.60;;;;;;;20.21;62.38;99116.85;1756921;80;20995;-87
2022/10/06 11:40:40;;;;;;;5.45;2.58;;;;;;;20.38;62.22;99111.98;1745462;80;21125;-86
2022/10/06 11:43:33;;;;;;;8.78;2.65;;;;;;;20.34;61.70;99122.02;1706126;82;21109;-87
2022/10/06 11:46:07;;;;;;;4.92;2.70;;;;;;;20.08;61.86;99123.27;1682366;83;21282;-86
2022/10/06 11:48:33;;;;;;;6.40;2.55;;;;;;;19.99;62.61;99127.89;1694976;83;21844;-87
2022/10/06 11:51:26;;;;;;;5.65;2.77;;;;;;;19.84;63.07;99126.92;1689368;83;21150;-86
2022/10/06 11:53:54;;;;;;;7.28;2.27;;;;;;;19.85;63.11;99128.55;1710886;82;21456;-87
2022/10/06 11:56:24;;;;;;;6.35;2.50;;;;;;;19.89;63.45;99133.09;1715087;82;21188;-86
2022/10/06 11:58:59;;;;;;;3.87;2.25;;;;;;;19.86;63.51;99126.05;1708617;83;21107;-86
2022/10/06 12:01:42;;;;;;;4.80;2.42;;;;;;;19.86;63.41;99126.05;1706069;82;21833;-86